Cleveland, Ohio
Traffic Map
Current Weather Conditions
Cleveland, Ohio
Broken Clouds Haze
Broken Clouds
41°
Feels Like: 41°
Wind Chill: 41° Ceiling: 9500
Heat Index: 41° Visibility: 4mi
Dew Point: 39° Wind: 0mph
Humidity: 93% Direction: ° ()
Pressure: 29.7in Gusts: 0mph
Raw Report DataKBKL 241053Z 00000KT 4SM BR BKN095 BKN120 05/04 A2970 RMK AO2 LTG DSNT N AND NE SLP059 T00500039
Traffic Incident Summary
Active as of:
Severity:
Category:
InformationThere was an issue retrieving the traffic information for this location. Please try a different location or try again shortly.
Advertisements
Track Severe Weather on mobile